The Eastern Iowa Airport
KCID : now visible

Airfield :











YOU CAN JOIN US ON...

 
LOGIN :

Register | Disclaimer

   EN    FR    IT 

 









Legend :    VFR   Marginal VFR   IFR   Intensive IFR   Very Intensive IFR
Visi :
Ceiling :
>= 8 km
>= 3000ft
5 to 8 km
1000 to 3000 ft
1500m to 5 km
500 to 1000 ft
800 to 1500m
200 to 500 ft
< 800m
< 200 ft
Symbols :   Thunderstorms  Fog  Heavy snow  Heavy precipitations  Wind > 20 kt






- Airport Elevation : 869 ft
- IATA code : CID


KCID - The Eastern Iowa

CURRENT METAR :
  • 070052Z 19008KT 10SM FEW019 BKN035 OVC050 14/13 A2984 RMK AO2 SLP106 T01440133

EXPIRED METARs :
  • 062352Z 17011G22KT 10SM FEW100 14/13 A2982 RMK AO2 SLP100 T01440128 10161 20117 56018
  • 062252Z 18014G21KT 10SM FEW110 16/12 A2983 RMK AO2 SLP101 T01610122
  • 062216Z 16013KT 10SM SCT024 SCT120 16/11 A2983 RMK AO2 T01560111
  • 062152Z 16012KT 10SM OVC024 15/11 A2985 RMK AO2 SLP110 T01500106

TAF KCID
Valid from the 07 at 00:00 until the 08 at 00:00 UTC


062321Z 0700/0724 17009KT P6SM OVC025
FM071700 23012G18KT P6SM SCT025



MET'MAP, your aeronautical weather chart ! - Copyright ORBIFLY December 2007 - Disclaimer

ORBIFLY MET'MAP TEAM :

Programming & Development : Alexandra Zaïnal
Concept & original design : Baudouin d'Aumeries
Assistance for programming : Marc-Olivier Méhu
Technical & hardware support : Manuel Goepfert

Contact : metmap@orbifly.com




SOURCES & CREDITS :

   NOAA       Earth
Advisory